Time;durP1;ratioP1;P1;durP2;ratioP2;P2;SDS_P1;SDS_P2;PMS_P1;PMS_P2;Temp;Humidity;BMP_temperature;BMP_pressure;BME280_temperature;BME280_humidity;BME280_pressure;Samples;Min_cycle;Max_cycle;Signal;HPM_P1;HPM_P2
2023/06/01 00:01:01;;;;;;;12.70;7.68;;;16.70;60.50;;;;;;5004417;28;20029;-67
2023/06/01 00:03:29;;;;;;;13.40;8.30;;;16.60;60.50;;;;;;5023740;28;20034;-67
2023/06/01 00:05:56;;;;;;;12.77;7.35;;;16.60;60.50;;;;;;5023432;28;20174;-67
2023/06/01 00:08:22;;;;;;;13.07;8.68;;;16.60;60.60;;;;;;5025742;28;20029;-67
2023/06/01 00:10:49;;;;;;;10.85;7.70;;;16.50;60.60;;;;;;5022615;28;20029;-67
2023/06/01 00:13:15;;;;;;;13.30;8.07;;;16.50;60.70;;;;;;5023088;28;20471;-67
2023/06/01 00:15:41;;;;;;;14.60;7.93;;;16.50;60.80;;;;;;5020667;28;20025;-67
2023/06/01 00:18:08;;;;;;;14.43;8.57;;;16.50;60.80;;;;;;5025444;28;20461;-67
2023/06/01 00:20:34;;;;;;;13.70;8.30;;;16.50;60.80;;;;;;5021926;28;20036;-67
2023/06/01 00:23:02;;;;;;;12.07;8.38;;;16.50;60.90;;;;;;5021549;28;20033;-67
2023/06/01 00:25:28;;;;;;;12.10;8.70;;;16.50;61.00;;;;;;5026865;28;20025;-67
2023/06/01 00:27:54;;;;;;;14.60;8.73;;;16.50;61.00;;;;;;5021775;28;20040;-67
2023/06/01 00:30:20;;;;;;;13.90;7.80;;;16.50;61.20;;;;;;5023209;28;20030;-67
2023/06/01 00:32:45;;;;;;;13.07;8.38;;;16.40;61.20;;;;;;5023322;28;20025;-67
2023/06/01 00:35:12;;;;;;;13.52;8.00;;;16.40;61.20;;;;;;5016882;28;20108;-67
2023/06/01 00:37:38;;;;;;;13.27;8.77;;;16.40;61.20;;;;;;5007434;28;20053;-67
2023/06/01 00:40:04;;;;;;;13.13;8.43;;;16.40;61.20;;;;;;5021253;28;20030;-67
2023/06/01 00:42:30;;;;;;;12.70;7.85;;;16.40;61.30;;;;;;5022760;28;20051;-67
2023/06/01 00:44:58;;;;;;;12.73;7.40;;;16.40;61.30;;;;;;5024511;28;20030;-67
2023/06/01 00:47:24;;;;;;;12.23;7.93;;;16.30;61.30;;;;;;5004744;28;20041;-67
2023/06/01 00:49:50;;;;;;;11.30;7.65;;;16.30;61.30;;;;;;5005685;28;20461;-66
2023/06/01 00:52:16;;;;;;;12.88;7.47;;;16.30;61.30;;;;;;5022071;28;20469;-66
2023/06/01 00:54:42;;;;;;;10.90;6.95;;;16.30;61.40;;;;;;5005224;28;20053;-66
2023/06/01 00:57:08;;;;;;;13.20;6.47;;;16.30;61.40;;;;;;5020792;28;20050;-66
2023/06/01 00:59:35;;;;;;;13.13;6.80;;;16.20;61.30;;;;;;5021349;28;20267;-66
2023/06/01 01:02:04;;;;;;;12.15;6.60;;;16.20;61.30;;;;;;5022593;28;20033;-66
2023/06/01 01:04:29;;;;;;;10.85;6.60;;;16.20;61.30;;;;;;5022237;28;20088;-66
2023/06/01 01:07:35;;;;;;;13.98;7.47;;;16.20;61.40;;;;;;5006997;28;20030;-66
2023/06/01 01:10:21;;;;;;;10.35;5.97;;;16.20;61.40;;;;;;5022780;28;20041;-66
2023/06/01 01:13:08;;;;;;;12.80;6.50;;;16.20;61.30;;;;;;5021488;28;20065;-66
2023/06/01 01:15:59;;;;;;;11.77;6.18;;;16.10;61.30;;;;;;5023491;28;20470;-66
2023/06/01 01:18:32;;;;;;;9.73;6.00;;;16.10;61.30;;;;;;5024865;28;20083;-66
2023/06/01 01:21:01;;;;;;;9.85;5.43;;;16.10;61.40;;;;;;5021357;28;20045;-66
2023/06/01 01:24:14;;;;;;;10.05;6.07;;;16.10;61.50;;;;;;5024269;28;20036;-66
2023/06/01 01:27:00;;;;;;;11.35;5.55;;;16.10;61.40;;;;;;5020957;28;20049;-66
2023/06/01 01:29:29;;;;;;;10.68;6.00;;;16.10;61.60;;;;;;5026691;28;20128;-66
2023/06/01 01:31:55;;;;;;;10.88;6.03;;;16.10;61.60;;;;;;5029030;28;20379;-66
2023/06/01 01:34:24;;;;;;;10.85;5.97;;;16.10;61.60;;;;;;5031109;28;20030;-66
2023/06/01 01:36:49;;;;;;;11.15;5.97;;;16.10;61.70;;;;;;5026897;28;20044;-66
2023/06/01 01:39:15;;;;;;;13.35;5.47;;;16.00;61.70;;;;;;5011605;28;20025;-66
2023/06/01 01:41:41;;;;;;;11.23;5.35;;;16.10;61.70;;;;;;5025658;28;20410;-66
2023/06/01 01:44:07;;;;;;;10.10;5.18;;;16.00;61.60;;;;;;5027289;28;20084;-66
2023/06/01 01:46:56;;;;;;;10.32;5.55;;;16.00;61.70;;;;;;5038560;28;20098;-67
2023/06/01 01:49:33;;;;;;;11.50;5.65;;;16.00;61.80;;;;;;5024410;28;20048;-66
2023/06/01 01:52:12;;;;;;;9.05;5.00;;;16.00;61.90;;;;;;5025932;28;20331;-67
2023/06/01 01:54:42;;;;;;;10.20;5.45;;;16.00;62.50;;;;;;5029277;28;20021;-67
2023/06/01 01:57:09;;;;;;;9.13;4.95;;;15.90;61.90;;;;;;5006239;28;20038;-67
2023/06/01 01:59:36;;;;;;;10.52;5.88;;;15.90;61.90;;;;;;5024666;28;20520;-67
2023/06/01 02:02:02;;;;;;;11.43;5.85;;;15.90;62.00;;;;;;5026476;28;20030;-67
2023/06/01 02:04:30;;;;;;;13.05;5.68;;;15.90;61.90;;;;;;5027153;28;20080;-67
2023/06/01 02:07:00;;;;;;;10.23;6.13;;;15.90;61.90;;;;;;5025269;28;20025;-67
2023/06/01 02:09:29;;;;;;;11.65;5.95;;;15.90;61.90;;;;;;5023910;28;20026;-67
2023/06/01 02:11:55;;;;;;;11.85;6.20;;;15.90;62.00;;;;;;5025030;28;20099;-67
2023/06/01 02:14:21;;;;;;;11.52;6.00;;;15.90;62.00;;;;;;5024950;28;20060;-67
2023/06/01 02:16:47;;;;;;;10.82;5.78;;;15.80;62.00;;;;;;5023566;28;20057;-67
2023/06/01 02:19:15;;;;;;;11.02;5.63;;;15.80;62.00;;;;;;5022295;28;20029;-67
2023/06/01 02:21:42;;;;;;;10.82;5.55;;;15.80;62.10;;;;;;5049293;28;20024;-67
2023/06/01 02:24:08;;;;;;;8.38;5.53;;;15.80;62.10;;;;;;5023588;28;20128;-67
2023/06/01 02:26:35;;;;;;;10.90;5.72;;;15.80;62.10;;;;;;5025804;28;20140;-67
2023/06/01 02:29:04;;;;;;;12.60;6.55;;;15.70;62.10;;;;;;5025594;28;20030;-66
2023/06/01 02:31:31;;;;;;;10.98;5.85;;;15.80;62.20;;;;;;5025890;28;20037;-67
2023/06/01 02:33:59;;;;;;;11.35;5.57;;;15.70;62.10;;;;;;5036374;28;20101;-67
2023/06/01 02:36:28;;;;;;;12.40;6.75;;;15.80;62.10;;;;;;5010164;28;20056;-67
2023/06/01 02:38:53;;;;;;;11.18;6.15;;;15.70;62.00;;;;;;5006982;28;20108;-67
2023/06/01 02:41:21;;;;;;;10.60;6.00;;;15.70;62.00;;;;;;5029435;28;20110;-67
2023/06/01 02:43:47;;;;;;;11.73;5.60;;;15.70;62.00;;;;;;5026750;28;20371;-67
2023/06/01 02:46:13;;;;;;;9.82;5.88;;;15.70;62.00;;;;;;5029171;28;20016;-67
2023/06/01 02:48:40;;;;;;;10.13;5.68;;;15.70;61.90;;;;;;5024444;28;20030;-67
2023/06/01 02:51:08;;;;;;;11.90;5.60;;;15.60;62.00;;;;;;5037282;28;20184;-67
2023/06/01 02:53:34;;;;;;;11.10;5.57;;;15.60;62.10;;;;;;5024876;28;20024;-67
2023/06/01 02:56:01;;;;;;;11.20;6.03;;;15.60;62.20;;;;;;5023536;28;20057;-67
2023/06/01 02:58:46;;;;;;;11.02;5.38;;;15.60;62.20;;;;;;5024151;28;20017;-67
2023/06/01 03:01:23;;;;;;;11.48;5.95;;;15.50;62.20;;;;;;5024745;28;20022;-67
2023/06/01 03:03:52;;;;;;;12.50;5.50;;;15.50;62.20;;;;;;5024285;28;20017;-67
2023/06/01 03:06:21;;;;;;;10.63;5.93;;;15.50;62.20;;;;;;5023743;28;20030;-67
2023/06/01 03:09:02;;;;;;;9.40;5.60;;;15.50;62.30;;;;;;5025978;28;20071;-66
2023/06/01 03:11:47;;;;;;;12.40;5.80;;;15.50;62.30;;;;;;5025400;28;20084;-67
2023/06/01 03:14:12;;;;;;;12.75;6.40;;;15.40;62.30;;;;;;5024946;28;20025;-67
2023/06/01 03:16:39;;;;;;;11.93;5.75;;;15.50;62.30;;;;;;5025500;28;20041;-66
2023/06/01 03:19:15;;;;;;;15.77;6.20;;;15.40;62.30;;;;;;5023726;28;20398;-66
2023/06/01 03:21:42;;;;;;;10.93;5.38;;;15.40;62.30;;;;;;5008695;28;20407;-66
2023/06/01 03:24:08;;;;;;;14.15;6.53;;;15.40;62.30;;;;;;5025062;28;20091;-66
2023/06/01 03:26:33;;;;;;;12.18;5.97;;;15.50;62.30;;;;;;5026273;28;20120;-66
2023/06/01 03:29:00;;;;;;;10.13;5.65;;;15.50;62.20;;;;;;5029843;28;20453;-66
2023/06/01 03:31:28;;;;;;;12.13;5.50;;;15.40;62.10;;;;;;5024608;28;20152;-66
2023/06/01 03:33:55;;;;;;;11.68;5.55;;;15.40;62.10;;;;;;5024142;28;20021;-66
2023/06/01 03:36:22;;;;;;;12.35;5.80;;;15.40;62.20;;;;;;5025872;28;20028;-66
2023/06/01 03:38:47;;;;;;;9.25;5.70;;;15.40;62.20;;;;;;5027269;28;20465;-66
2023/06/01 03:41:13;;;;;;;11.38;5.75;;;15.40;62.30;;;;;;5023811;28;20018;-66
2023/06/01 03:43:40;;;;;;;11.45;5.90;;;15.40;62.30;;;;;;5021263;28;20018;-66
2023/06/01 03:46:05;;;;;;;9.68;4.88;;;15.40;62.40;;;;;;5039846;28;20351;-66
2023/06/01 03:48:31;;;;;;;10.52;5.95;;;15.40;62.30;;;;;;5022810;28;20028;-66
2023/06/01 03:50:57;;;;;;;11.57;6.22;;;15.40;62.30;;;;;;5023193;28;20521;-66
2023/06/01 03:53:25;;;;;;;11.48;5.70;;;15.40;62.30;;;;;;5023465;28;20053;-66
2023/06/01 03:55:54;;;;;;;11.43;5.65;;;15.40;62.40;;;;;;5023820;28;21495;-66
2023/06/01 03:58:28;;;;;;;12.63;6.07;;;15.40;62.40;;;;;;5022829;28;20088;-66
2023/06/01 04:00:54;;;;;;;11.65;5.80;;;15.40;62.40;;;;;;5005444;28;20030;-66
2023/06/01 04:03:22;;;;;;;11.00;5.50;;;15.40;62.30;;;;;;5023358;28;20451;-66
2023/06/01 04:05:50;;;;;;;10.95;5.55;;;15.40;62.40;;;;;;5022866;28;20120;-66
2023/06/01 04:08:17;;;;;;;12.05;6.10;;;15.40;62.40;;;;;;5029126;28;20030;-66
2023/06/01 04:10:43;;;;;;;10.88;5.60;;;15.40;62.40;;;;;;5025094;28;20036;-66
2023/06/01 04:13:09;;;;;;;9.43;5.40;;;15.40;62.30;;;;;;5025555;28;20033;-66
2023/06/01 04:15:36;;;;;;;8.85;5.28;;;15.40;62.30;;;;;;5024120;28;20026;-66
2023/06/01 04:18:03;;;;;;;11.10;4.65;;;15.40;62.20;;;;;;5022947;28;20026;-66
2023/06/01 04:20:42;;;;;;;10.45;5.28;;;15.40;62.30;;;;;;5023548;28;20056;-66
2023/06/01 04:23:08;;;;;;;12.30;5.75;;;15.40;62.30;;;;;;5023337;28;20026;-66
2023/06/01 04:25:34;;;;;;;13.90;5.45;;;15.40;62.30;;;;;;5008862;28;20037;-66
2023/06/01 04:28:00;;;;;;;10.88;5.15;;;15.40;62.30;;;;;;5006221;28;20112;-66
2023/06/01 04:30:30;;;;;;;10.55;5.35;;;15.40;62.30;;;;;;5022409;28;20068;-66
2023/06/01 04:32:56;;;;;;;11.60;5.80;;;15.40;62.30;;;;;;5007220;28;20022;-66
2023/06/01 04:35:22;;;;;;;13.98;5.35;;;15.40;62.30;;;;;;5025617;28;20438;-66
2023/06/01 04:37:49;;;;;;;9.52;4.80;;;15.40;62.30;;;;;;5033506;28;20033;-66
2023/06/01 04:40:16;;;;;;;11.25;4.75;;;15.40;62.30;;;;;;5021564;28;20038;-66
2023/06/01 04:42:48;;;;;;;10.75;5.32;;;15.50;62.30;;;;;;5024969;28;20037;-66
2023/06/01 04:45:15;;;;;;;11.82;5.28;;;15.50;62.30;;;;;;5008372;28;20030;-66
2023/06/01 04:47:44;;;;;;;13.32;5.63;;;15.50;62.40;;;;;;5048220;28;20025;-66
2023/06/01 04:50:17;;;;;;;12.20;6.07;;;15.50;62.40;;;;;;5026928;28;20032;-66
2023/06/01 04:52:44;;;;;;;10.43;5.20;;;15.50;62.30;;;;;;5033007;28;20037;-66
2023/06/01 04:55:13;;;;;;;11.05;5.38;;;15.50;62.40;;;;;;5031404;28;20443;-66
2023/06/01 04:57:42;;;;;;;11.75;5.60;;;15.50;62.30;;;;;;5024460;28;20033;-66
2023/06/01 05:00:13;;;;;;;11.90;5.60;;;15.50;62.20;;;;;;5021939;28;20120;-66
2023/06/01 05:02:40;;;;;;;9.73;4.70;;;15.60;62.30;;;;;;5023609;28;20041;-68
2023/06/01 05:05:08;;;;;;;11.25;5.70;;;15.60;62.20;;;;;;5007905;28;20327;-70
2023/06/01 05:07:36;;;;;;;10.80;5.50;;;15.60;62.10;;;;;;5017413;28;20028;-69
2023/06/01 05:10:05;;;;;;;11.45;5.28;;;15.60;62.00;;;;;;5025410;28;20041;-69
2023/06/01 05:12:35;;;;;;;10.85;5.70;;;15.60;61.90;;;;;;5031987;28;20072;-68
2023/06/01 05:15:06;;;;;;;10.27;4.85;;;15.60;61.80;;;;;;5024622;28;20026;-68
2023/06/01 05:17:33;;;;;;;9.07;4.97;;;15.60;61.80;;;;;;5020739;28;20112;-70
2023/06/01 05:20:01;;;;;;;10.90;5.22;;;15.60;61.80;;;;;;5018943;28;20120;-70
2023/06/01 05:22:27;;;;;;;10.02;5.15;;;15.60;61.80;;;;;;5029984;28;20104;-70
2023/06/01 05:24:52;;;;;;;13.07;5.68;;;15.60;61.70;;;;;;5030948;28;20454;-69
2023/06/01 05:27:19;;;;;;;10.27;5.70;;;15.70;61.80;;;;;;5016041;28;20101;-69
2023/06/01 05:29:44;;;;;;;11.27;5.50;;;15.70;61.60;;;;;;5013489;28;20021;-66
2023/06/01 05:32:10;;;;;;;13.07;6.03;;;15.70;61.60;;;;;;5015129;28;20095;-66
2023/06/01 05:34:37;;;;;;;12.50;5.45;;;15.70;61.60;;;;;;5016461;28;20127;-67
2023/06/01 05:37:03;;;;;;;12.10;5.55;;;15.70;61.50;;;;;;5031163;28;20184;-66
2023/06/01 05:39:29;;;;;;;14.68;6.30;;;15.70;61.50;;;;;;5027784;28;20095;-67
2023/06/01 05:41:55;;;;;;;13.23;7.00;;;15.70;61.40;;;;;;5032525;28;20090;-67
2023/06/01 05:44:23;;;;;;;13.07;6.53;;;15.70;61.30;;;;;;5013804;28;20132;-67
2023/06/01 05:46:49;;;;;;;12.55;5.90;;;15.70;61.30;;;;;;5040211;28;20110;-67
2023/06/01 05:49:15;;;;;;;16.17;5.82;;;15.80;61.30;;;;;;5027232;28;20086;-67
2023/06/01 05:51:42;;;;;;;10.73;5.97;;;15.80;61.30;;;;;;5035900;28;20198;-67
2023/06/01 05:54:09;;;;;;;10.32;4.95;;;15.70;61.30;;;;;;5032592;28;20120;-67
2023/06/01 05:56:40;;;;;;;11.82;5.68;;;15.70;61.30;;;;;;5034616;28;20048;-66
2023/06/01 05:59:07;;;;;;;12.35;5.57;;;15.70;61.40;;;;;;5038873;28;20025;-67
2023/06/01 06:01:36;;;;;;;11.13;5.32;;;15.80;61.50;;;;;;5033391;28;20024;-67
2023/06/01 06:04:01;;;;;;;12.63;5.50;;;15.80;61.40;;;;;;5038329;28;20025;-67
2023/06/01 06:06:28;;;;;;;11.13;5.80;;;15.80;61.20;;;;;;5047322;28;20378;-67
2023/06/01 06:08:54;;;;;;;10.93;5.63;;;15.80;61.20;;;;;;5042093;28;20448;-67
2023/06/01 06:11:21;;;;;;;12.48;5.90;;;15.90;61.10;;;;;;5040198;28;20021;-66
2023/06/01 06:13:50;;;;;;;10.40;5.80;;;15.90;60.90;;;;;;5024567;28;20033;-66
2023/06/01 06:16:16;;;;;;;12.75;5.28;;;16.00;60.80;;;;;;5047032;28;20035;-67
2023/06/01 06:18:43;;;;;;;11.13;5.63;;;16.00;60.70;;;;;;5050556;28;20831;-66
2023/06/01 06:21:09;;;;;;;12.13;5.40;;;16.00;60.60;;;;;;5046131;28;20043;-66
2023/06/01 06:23:35;;;;;;;11.93;5.97;;;16.00;60.50;;;;;;5048679;28;20406;-66
2023/06/01 06:26:00;;;;;;;11.65;5.07;;;16.00;60.50;;;;;;5036628;28;20029;-70
2023/06/01 06:28:26;;;;;;;12.60;5.53;;;16.10;60.50;;;;;;5036107;28;20506;-67
2023/06/01 06:30:52;;;;;;;12.57;6.20;;;16.10;60.50;;;;;;5038827;28;20071;-67
2023/06/01 06:33:18;;;;;;;10.65;5.38;;;16.10;60.50;;;;;;5040673;28;20054;-68
2023/06/01 06:35:44;;;;;;;12.48;5.78;;;16.20;60.50;;;;;;5037701;28;20430;-66
2023/06/01 06:38:12;;;;;;;12.88;6.07;;;16.30;60.40;;;;;;5038563;28;20022;-66
2023/06/01 06:40:37;;;;;;;13.55;5.00;;;16.30;60.30;;;;;;5037224;28;20021;-69
2023/06/01 06:43:03;;;;;;;12.35;5.05;;;16.40;60.20;;;;;;5053518;28;20533;-67
2023/06/01 06:45:29;;;;;;;10.88;5.40;;;16.40;59.90;;;;;;5030003;28;20029;-67
2023/06/01 06:47:55;;;;;;;11.10;5.05;;;16.60;59.70;;;;;;5032631;28;20142;-68
2023/06/01 06:50:20;;;;;;;10.18;5.20;;;16.90;59.40;;;;;;5046002;28;20040;-68
2023/06/01 06:52:46;;;;;;;11.80;4.50;;;17.20;58.70;;;;;;5038792;28;20419;-68
2023/06/01 06:55:12;;;;;;;12.20;4.82;;;17.50;57.90;;;;;;5006404;28;20017;-67
2023/06/01 06:57:39;;;;;;;9.70;4.80;;;17.80;57.60;;;;;;5021800;28;20029;-67
2023/06/01 07:00:14;;;;;;;11.70;5.20;;;18.20;57.20;;;;;;5042870;28;20112;-67
2023/06/01 07:02:41;;;;;;;12.15;5.22;;;18.50;56.60;;;;;;5025278;28;20172;-68
2023/06/01 07:05:08;;;;;;;11.13;5.13;;;18.50;56.20;;;;;;5029659;28;20140;-67
2023/06/01 07:07:34;;;;;;;11.98;5.53;;;18.30;56.20;;;;;;5040328;28;20048;-68
2023/06/01 07:10:00;;;;;;;10.50;5.05;;;18.20;56.40;;;;;;5041255;28;20037;-67
2023/06/01 07:12:26;;;;;;;10.02;5.28;;;18.10;56.60;;;;;;5029159;28;20398;-67
2023/06/01 07:14:52;;;;;;;10.15;4.50;;;18.10;56.70;;;;;;5023733;28;20399;-68
2023/06/01 07:17:17;;;;;;;10.80;4.95;;;18.20;56.40;;;;;;5054862;28;20327;-68
2023/06/01 07:19:43;;;;;;;10.18;5.25;;;18.50;55.80;;;;;;5046520;28;20021;-68
2023/06/01 07:22:09;;;;;;;9.63;5.03;;;18.60;55.50;;;;;;5047523;28;20378;-68
2023/06/01 07:24:35;;;;;;;9.65;4.75;;;18.80;55.30;;;;;;5025644;28;20047;-69
2023/06/01 07:27:01;;;;;;;10.45;5.05;;;19.00;54.90;;;;;;5051012;28;20056;-67
2023/06/01 07:29:27;;;;;;;10.80;5.15;;;19.30;54.40;;;;;;5051020;28;20400;-67
2023/06/01 07:31:53;;;;;;;9.48;4.88;;;19.50;53.90;;;;;;5015854;28;20143;-67
2023/06/01 07:34:19;;;;;;;10.10;5.22;;;19.60;54.30;;;;;;5029016;28;20033;-67
2023/06/01 07:36:47;;;;;;;11.38;5.35;;;19.60;53.40;;;;;;5028997;28;20056;-68
2023/06/01 07:39:13;;;;;;;12.18;5.35;;;19.60;53.40;;;;;;5031457;28;20383;-68
2023/06/01 07:41:39;;;;;;;10.15;5.03;;;19.80;53.30;;;;;;5028582;28;20331;-68
2023/06/01 07:44:07;;;;;;;12.52;5.05;;;20.00;52.70;;;;;;5017441;28;20061;-68
2023/06/01 07:46:33;;;;;;;8.40;4.63;;;20.30;52.10;;;;;;5025782;28;20018;-68
2023/06/01 07:48:59;;;;;;;9.13;4.45;;;20.60;51.60;;;;;;5026820;28;20344;-67
2023/06/01 07:51:25;;;;;;;12.77;5.35;;;20.80;51.30;;;;;;5051678;28;20053;-67
2023/06/01 07:53:50;;;;;;;10.32;4.28;;;21.00;51.00;;;;;;5051500;28;20197;-68
2023/06/01 07:56:19;;;;;;;9.95;4.50;;;21.10;50.70;;;;;;5042055;28;20452;-68
2023/06/01 07:58:45;;;;;;;9.65;4.60;;;21.30;50.50;;;;;;5035880;28;20033;-68
2023/06/01 08:01:11;;;;;;;8.63;4.60;;;21.40;50.30;;;;;;5045859;28;20048;-67
2023/06/01 08:03:37;;;;;;;9.45;4.57;;;21.50;50.10;;;;;;5053990;28;20056;-68
2023/06/01 08:06:04;;;;;;;9.77;4.85;;;21.50;49.80;;;;;;5026879;28;20131;-68
2023/06/01 08:08:31;;;;;;;10.93;4.90;;;21.60;49.70;;;;;;5026420;28;20053;-68
2023/06/01 08:10:56;;;;;;;8.93;4.25;;;21.60;49.50;;;;;;5054021;28;20154;-67
2023/06/01 08:13:25;;;;;;;8.95;4.53;;;21.70;49.30;;;;;;5054864;28;20418;-68
2023/06/01 08:15:53;;;;;;;9.70;4.75;;;21.90;49.30;;;;;;5024973;28;20022;-69
2023/06/01 08:18:23;;;;;;;8.15;4.13;;;21.90;48.90;;;;;;5030697;28;20159;-69
2023/06/01 08:20:49;;;;;;;9.95;4.43;;;21.90;48.90;;;;;;5054102;28;20100;-68
2023/06/01 08:23:18;;;;;;;8.95;4.45;;;22.00;49.30;;;;;;5054563;28;20029;-68
2023/06/01 08:25:45;;;;;;;10.48;4.53;;;22.00;48.60;;;;;;5054777;28;20059;-68
2023/06/01 08:28:11;;;;;;;10.05;4.63;;;22.10;48.30;;;;;;5040646;28;20085;-68
2023/06/01 08:30:37;;;;;;;10.38;5.13;;;22.20;48.00;;;;;;5040617;28;20033;-68
2023/06/01 08:33:03;;;;;;;9.38;4.20;;;22.20;47.90;;;;;;5054529;28;20404;-68
2023/06/01 08:35:33;;;;;;;10.95;4.63;;;22.20;47.90;;;;;;5035877;28;20124;-68
2023/06/01 08:38:00;;;;;;;10.23;4.82;;;22.40;47.70;;;;;;5017235;28;20044;-68
2023/06/01 08:40:25;;;;;;;10.48;4.88;;;22.50;47.30;;;;;;5026397;28;20095;-68
2023/06/01 08:42:57;;;;;;;8.50;3.92;;;22.50;47.00;;;;;;5032803;28;20395;-68
2023/06/01 08:45:24;;;;;;;9.35;4.40;;;22.60;46.70;;;;;;5033296;28;20029;-68
2023/06/01 08:47:53;;;;;;;9.27;4.40;;;22.70;46.70;;;;;;5033074;28;20029;-68
2023/06/01 08:50:21;;;;;;;9.43;4.72;;;22.80;46.40;;;;;;5032710;28;20120;-68
2023/06/01 08:52:50;;;;;;;10.25;4.45;;;22.80;46.10;;;;;;5033584;28;20312;-68
2023/06/01 08:55:16;;;;;;;9.95;5.00;;;22.90;46.20;;;;;;5016709;28;20037;-67
2023/06/01 08:57:42;;;;;;;9.00;4.43;;;22.90;46.10;;;;;;5034512;28;20344;-68
2023/06/01 09:00:13;;;;;;;9.88;5.25;;;23.10;45.90;;;;;;5032934;28;20044;-68
2023/06/01 09:02:39;;;;;;;8.90;4.35;;;23.10;45.60;;;;;;5027239;28;20038;-67
2023/06/01 09:05:05;;;;;;;9.25;4.20;;;23.10;45.70;;;;;;5034226;28;20029;-67
2023/06/01 09:07:32;;;;;;;10.30;4.65;;;23.20;45.70;;;;;;5032888;28;20103;-68
2023/06/01 09:09:57;;;;;;;9.80;4.55;;;23.30;45.50;;;;;;5034205;28;20080;-68
2023/06/01 09:12:25;;;;;;;8.15;4.28;;;23.30;45.20;;;;;;5025256;28;20240;-68
2023/06/01 09:15:11;;;;;;;10.90;4.28;;;23.40;45.10;;;;;;5016539;28;20470;-68
2023/06/01 09:17:40;;;;;;;9.52;4.32;;;23.50;44.90;;;;;;5034189;28;20108;-68
2023/06/01 09:20:15;;;;;;;9.15;4.70;;;23.60;44.90;;;;;;5016351;28;20032;-68
2023/06/01 09:22:42;;;;;;;8.05;3.72;;;23.60;44.60;;;;;;5024790;28;20025;-67
2023/06/01 09:25:09;;;;;;;7.57;3.90;;;23.60;44.50;;;;;;5032980;28;20104;-67
2023/06/01 09:27:49;;;;;;;8.57;4.00;;;23.70;44.50;;;;;;5033164;28;20049;-68
2023/06/01 09:30:17;;;;;;;8.33;4.03;;;23.80;44.20;;;;;;5034347;28;20033;-68
2023/06/01 09:32:47;;;;;;;8.32;4.10;;;23.90;44.10;;;;;;5014702;28;20037;-68
2023/06/01 09:35:13;;;;;;;8.65;4.38;;;24.00;44.00;;;;;;5033197;28;20406;-68
2023/06/01 09:37:56;;;;;;;8.57;3.60;;;24.00;43.70;;;;;;5033647;28;20099;-67
2023/06/01 09:40:22;;;;;;;8.75;3.20;;;24.10;43.40;;;;;;5032960;28;20041;-67
2023/06/01 09:42:50;;;;;;;8.82;3.63;;;24.10;43.60;;;;;;5032881;28;20029;-67
2023/06/01 09:45:18;;;;;;;9.20;3.70;;;24.20;43.70;;;;;;5027844;28;20124;-68
2023/06/01 09:47:44;;;;;;;7.18;3.50;;;24.40;43.50;;;;;;5036960;28;20116;-69
2023/06/01 09:50:11;;;;;;;7.85;3.30;;;24.50;43.30;;;;;;5056371;28;20447;-67
2023/06/01 09:52:37;;;;;;;8.82;4.25;;;24.60;43.20;;;;;;5057168;28;20037;-67
2023/06/01 09:55:07;;;;;;;9.05;3.58;;;24.60;42.60;;;;;;5039638;28;20037;-67
2023/06/01 09:57:33;;;;;;;8.75;3.88;;;24.60;42.60;;;;;;5022515;28;20045;-67
2023/06/01 10:00:03;;;;;;;6.78;3.40;;;24.70;42.60;;;;;;5040859;28;20071;-67
2023/06/01 10:02:32;;;;;;;8.20;3.55;;;24.70;42.60;;;;;;5057998;28;20488;-68
2023/06/01 10:04:58;;;;;;;7.95;3.15;;;24.90;42.70;;;;;;5038763;28;20026;-67
2023/06/01 10:07:27;;;;;;;7.53;3.97;;;25.00;42.50;;;;;;5039831;28;20021;-67
2023/06/01 10:09:57;;;;;;;7.38;3.13;;;25.00;42.20;;;;;;5051226;28;20041;-67
2023/06/01 10:12:28;;;;;;;6.55;3.53;;;25.00;42.30;;;;;;5056086;28;20048;-67
2023/06/01 10:14:55;;;;;;;7.95;3.40;;;25.00;42.30;;;;;;5040156;28;20033;-68
2023/06/01 10:17:21;;;;;;;7.90;3.58;;;25.10;42.20;;;;;;5052084;28;20029;-67
2023/06/01 10:19:48;;;;;;;8.43;3.30;;;25.20;42.10;;;;;;5048627;28;20118;-68
2023/06/01 10:22:14;;;;;;;8.23;4.00;;;25.20;42.10;;;;;;5035886;28;20477;-67
2023/06/01 10:24:43;;;;;;;7.18;3.65;;;25.20;42.20;;;;;;5027297;28;20030;-68
2023/06/01 10:27:30;;;;;;;7.55;3.55;;;25.30;42.20;;;;;;5033355;28;20056;-68
2023/06/01 10:29:56;;;;;;;10.20;3.55;;;25.40;41.80;;;;;;5034147;28;20025;-68
2023/06/01 10:32:37;;;;;;;8.98;3.55;;;25.30;41.60;;;;;;5018973;28;20344;-69
2023/06/01 10:35:04;;;;;;;7.85;3.33;;;25.30;41.50;;;;;;5021462;28;20022;-68
2023/06/01 10:37:30;;;;;;;10.30;3.85;;;25.50;41.80;;;;;;5046462;28;20028;-68
2023/06/01 10:40:34;;;;;;;7.63;3.72;;;25.50;41.50;;;;;;5036349;28;20033;-69
2023/06/01 10:43:00;;;;;;;8.52;3.55;;;25.50;41.10;;;;;;5029464;28;20036;-69
2023/06/01 10:45:41;;;;;;;7.45;3.60;;;25.50;41.20;;;;;;5030022;28;20370;-67
2023/06/01 10:48:12;;;;;;;8.00;3.83;;;25.40;41.20;;;;;;5032814;28;20029;-68
2023/06/01 10:50:42;;;;;;;9.07;3.90;;;25.40;41.40;;;;;;5047275;28;20094;-68
2023/06/01 10:53:28;;;;;;;7.43;3.08;;;25.50;41.50;;;;;;5022712;28;20143;-67
2023/06/01 10:56:23;;;;;;;7.63;3.35;;;25.70;41.60;;;;;;5030913;28;20033;-68
2023/06/01 10:59:07;;;;;;;6.80;3.17;;;25.70;41.20;;;;;;5044955;28;20403;-68
2023/06/01 11:01:38;;;;;;;10.82;4.07;;;25.70;41.30;;;;;;5048150;28;20450;-68
2023/06/01 11:04:04;;;;;;;;;;;25.80;40.80;;;;;;5027171;28;20034;-68
2023/06/01 11:06:40;;;;;;;10.02;3.78;;;25.60;41.20;;;;;;5048085;28;19971;-68
2023/06/01 11:09:10;;;;;;;9.38;3.83;;;25.50;41.30;;;;;;5029353;28;20379;-68
2023/06/01 11:11:51;;;;;;;9.57;3.97;;;25.50;41.60;;;;;;5041581;28;20117;-67
2023/06/01 11:14:25;;;;;;;8.23;3.88;;;25.50;41.00;;;;;;5047448;28;20029;-68
2023/06/01 11:16:54;;;;;;;9.55;3.65;;;25.50;41.20;;;;;;5036134;28;20075;-67
2023/06/01 11:19:24;;;;;;;8.40;3.40;;;25.60;41.10;;;;;;5033554;28;20037;-68
2023/06/01 11:22:00;;;;;;;7.93;3.63;;;25.70;41.00;;;;;;5041819;28;20025;-68
2023/06/01 11:24:35;;;;;;;8.40;3.72;;;25.80;40.70;;;;;;5020470;28;20033;-68
2023/06/01 11:27:12;;;;;;;7.85;3.42;;;25.90;40.40;;;;;;5044136;28;20068;-69
2023/06/01 11:29:38;;;;;;;7.43;3.40;;;25.80;40.20;;;;;;5031942;28;20518;-69
2023/06/01 11:32:05;;;;;;;7.60;3.55;;;25.80;40.30;;;;;;5029402;28;20065;-69
2023/06/01 11:34:44;;;;;;;7.43;3.20;;;25.80;40.40;;;;;;5034825;28;20072;-69
2023/06/01 11:37:18;;;;;;;8.35;3.60;;;25.80;40.50;;;;;;5034852;28;20320;-68
2023/06/01 11:39:46;;;;;;;7.88;3.20;;;25.70;40.20;;;;;;5034583;28;20422;-68
2023/06/01 11:42:15;;;;;;;8.88;3.63;;;25.70;40.50;;;;;;5032266;28;20116;-68
2023/06/01 11:44:43;;;;;;;10.10;3.70;;;25.80;40.50;;;;;;5035316;28;20041;-68
2023/06/01 11:47:10;;;;;;;8.40;3.58;;;25.80;40.40;;;;;;5028535;28;20029;-68
2023/06/01 11:49:48;;;;;;;8.50;3.50;;;25.80;40.20;;;;;;5054459;28;20029;-69
2023/06/01 11:52:15;;;;;;;8.70;3.47;;;25.60;39.80;;;;;;5043834;28;20029;-68
2023/06/01 11:54:41;;;;;;;8.95;3.72;;;25.50;40.00;;;;;;5049797;28;20028;-69
2023/06/01 11:57:07;;;;;;;9.55;3.97;;;25.30;40.40;;;;;;5035484;28;20320;-68
2023/06/01 11:59:40;;;;;;;8.15;3.47;;;25.30;40.90;;;;;;5050143;28;20107;-69
2023/06/01 12:02:35;;;;;;;8.05;2.97;;;25.40;40.80;;;;;;5029205;28;20030;-68
2023/06/01 12:05:08;;;;;;;7.32;3.38;;;25.30;40.90;;;;;;5048333;28;20036;-68
2023/06/01 12:07:47;;;;;;;6.97;3.28;;;25.20;40.80;;;;;;5055343;28;20079;-68
2023/06/01 12:10:16;;;;;;;7.45;3.35;;;25.10;40.90;;;;;;5054222;28;20449;-68
2023/06/01 12:12:43;;;;;;;8.90;3.97;;;25.10;41.30;;;;;;5039610;28;20038;-69
2023/06/01 12:15:16;;;;;;;10.60;3.95;;;25.00;41.20;;;;;;5050345;28;20077;-68
2023/06/01 12:17:50;;;;;;;9.20;3.90;;;24.90;41.30;;;;;;5054985;28;20104;-68
2023/06/01 12:20:29;;;;;;;8.65;3.90;;;24.90;41.40;;;;;;5051794;28;20108;-68
2023/06/01 12:22:56;;;;;;;7.32;3.33;;;24.70;41.30;;;;;;5031701;28;20045;-68
2023/06/01 12:25:25;;;;;;;7.55;3.55;;;24.70;41.60;;;;;;5045874;28;20037;-68
2023/06/01 12:28:10;;;;;;;9.55;4.32;;;24.70;41.60;;;;;;5034698;28;20034;-69
2023/06/01 12:30:36;;;;;;;9.05;3.70;;;24.60;41.50;;;;;;5034384;28;20072;-68
2023/06/01 12:33:04;;;;;;;7.70;3.10;;;24.50;41.60;;;;;;5027472;28;20053;-68
2023/06/01 12:35:30;;;;;;;8.88;3.53;;;24.40;41.80;;;;;;5034232;28;20085;-68
2023/06/01 12:38:06;;;;;;;7.57;3.35;;;24.40;41.70;;;;;;5027047;28;20342;-68
2023/06/01 12:40:36;;;;;;;6.72;3.05;;;24.40;41.60;;;;;;5026496;28;20025;-68
2023/06/01 12:43:06;;;;;;;8.65;4.22;;;24.40;41.60;;;;;;5021734;28;20109;-68
2023/06/01 12:45:38;;;;;;;8.43;3.75;;;24.30;41.60;;;;;;5025408;28;20033;-68
2023/06/01 12:48:07;;;;;;;7.75;3.25;;;24.30;41.40;;;;;;5027912;28;20516;-69
2023/06/01 12:50:33;;;;;;;6.95;3.25;;;24.30;41.40;;;;;;5025309;28;20032;-68